sensor_id;sensor_type;location;lat;lon;timestamp;P1;durP1;ratioP1;P2;durP2;ratioP2
16282;SDS011;8249;48.708;9.030;2022-09-12T00:01:36;2.27;;;2.17;;
16282;SDS011;8249;48.708;9.030;2022-09-12T00:04:03;2.10;;;2.00;;
16282;SDS011;8249;48.708;9.030;2022-09-12T00:06:30;2.50;;;2.40;;
16282;SDS011;8249;48.708;9.030;2022-09-12T00:09:00;3.17;;;1.90;;
16282;SDS011;8249;48.708;9.030;2022-09-12T00:11:30;3.30;;;3.10;;
16282;SDS011;8249;48.708;9.030;2022-09-12T00:13:58;2.23;;;2.17;;
16282;SDS011;8249;48.708;9.030;2022-09-12T00:16:28;2.83;;;2.53;;
16282;SDS011;8249;48.708;9.030;2022-09-12T00:18:57;2.67;;;2.50;;
16282;SDS011;8249;48.708;9.030;2022-09-12T00:21:25;2.23;;;2.17;;
16282;SDS011;8249;48.708;9.030;2022-09-12T00:23:51;2.23;;;2.13;;
16282;SDS011;8249;48.708;9.030;2022-09-12T00:26:19;2.73;;;2.13;;
16282;SDS011;8249;48.708;9.030;2022-09-12T00:28:46;2.30;;;2.10;;
16282;SDS011;8249;48.708;9.030;2022-09-12T00:31:15;2.73;;;2.53;;
16282;SDS011;8249;48.708;9.030;2022-09-12T00:33:45;2.37;;;2.27;;
16282;SDS011;8249;48.708;9.030;2022-09-12T00:36:13;4.07;;;2.73;;
16282;SDS011;8249;48.708;9.030;2022-09-12T00:38:42;2.47;;;2.27;;
16282;SDS011;8249;48.708;9.030;2022-09-12T00:41:13;2.20;;;2.10;;
16282;SDS011;8249;48.708;9.030;2022-09-12T00:43:43;1.93;;;1.70;;
16282;SDS011;8249;48.708;9.030;2022-09-12T00:46:14;2.17;;;1.80;;
16282;SDS011;8249;48.708;9.030;2022-09-12T00:48:51;2.40;;;2.30;;
16282;SDS011;8249;48.708;9.030;2022-09-12T00:51:22;2.63;;;2.43;;
16282;SDS011;8249;48.708;9.030;2022-09-12T00:53:51;2.23;;;2.13;;
16282;SDS011;8249;48.708;9.030;2022-09-12T00:56:20;2.30;;;2.20;;
16282;SDS011;8249;48.708;9.030;2022-09-12T00:58:50;3.43;;;2.03;;
16282;SDS011;8249;48.708;9.030;2022-09-12T01:01:21;2.40;;;2.27;;
16282;SDS011;8249;48.708;9.030;2022-09-12T01:03:48;2.07;;;1.97;;
16282;SDS011;8249;48.708;9.030;2022-09-12T01:06:17;2.17;;;2.07;;
16282;SDS011;8249;48.708;9.030;2022-09-12T01:08:47;4.33;;;2.40;;
16282;SDS011;8249;48.708;9.030;2022-09-12T01:11:17;1.93;;;1.83;;
16282;SDS011;8249;48.708;9.030;2022-09-12T01:13:46;2.30;;;2.10;;
16282;SDS011;8249;48.708;9.030;2022-09-12T01:16:14;2.37;;;2.27;;
16282;SDS011;8249;48.708;9.030;2022-09-12T01:18:46;2.63;;;2.43;;
16282;SDS011;8249;48.708;9.030;2022-09-12T01:21:30;2.10;;;2.00;;
16282;SDS011;8249;48.708;9.030;2022-09-12T01:33:08;2.93;;;2.73;;
16282;SDS011;8249;48.708;9.030;2022-09-12T01:35:59;2.73;;;2.63;;
16282;SDS011;8249;48.708;9.030;2022-09-12T01:38:37;2.13;;;2.00;;
16282;SDS011;8249;48.708;9.030;2022-09-12T01:41:10;2.07;;;1.90;;
16282;SDS011;8249;48.708;9.030;2022-09-12T01:43:46;2.47;;;2.37;;
16282;SDS011;8249;48.708;9.030;2022-09-12T01:46:20;2.20;;;2.10;;
16282;SDS011;8249;48.708;9.030;2022-09-12T01:48:53;2.73;;;2.53;;
16282;SDS011;8249;48.708;9.030;2022-09-12T01:51:26;2.93;;;2.73;;
16282;SDS011;8249;48.708;9.030;2022-09-12T01:54:01;2.87;;;2.67;;
16282;SDS011;8249;48.708;9.030;2022-09-12T01:56:33;2.00;;;1.90;;
16282;SDS011;8249;48.708;9.030;2022-09-12T01:59:04;2.67;;;2.57;;
16282;SDS011;8249;48.708;9.030;2022-09-12T02:01:39;2.47;;;2.37;;
16282;SDS011;8249;48.708;9.030;2022-09-12T02:04:11;2.73;;;2.53;;
16282;SDS011;8249;48.708;9.030;2022-09-12T02:06:43;2.53;;;2.33;;
16282;SDS011;8249;48.708;9.030;2022-09-12T02:09:15;3.03;;;2.83;;
16282;SDS011;8249;48.708;9.030;2022-09-12T02:11:45;1.70;;;1.60;;
16282;SDS011;8249;48.708;9.030;2022-09-12T02:14:16;2.50;;;2.40;;
16282;SDS011;8249;48.708;9.030;2022-09-12T02:16:49;2.33;;;2.23;;
16282;SDS011;8249;48.708;9.030;2022-09-12T02:19:20;2.17;;;2.07;;
16282;SDS011;8249;48.708;9.030;2022-09-12T02:21:49;2.07;;;1.97;;
16282;SDS011;8249;48.708;9.030;2022-09-12T02:24:19;2.57;;;2.37;;
16282;SDS011;8249;48.708;9.030;2022-09-12T02:26:51;2.53;;;2.43;;
16282;SDS011;8249;48.708;9.030;2022-09-12T02:29:24;1.77;;;1.70;;
16282;SDS011;8249;48.708;9.030;2022-09-12T02:31:53;2.67;;;2.57;;
16282;SDS011;8249;48.708;9.030;2022-09-12T02:34:31;1.90;;;1.80;;
16282;SDS011;8249;48.708;9.030;2022-09-12T02:37:09;2.17;;;2.00;;
16282;SDS011;8249;48.708;9.030;2022-09-12T02:39:43;2.50;;;2.27;;
16282;SDS011;8249;48.708;9.030;2022-09-12T02:42:11;3.00;;;2.80;;
16282;SDS011;8249;48.708;9.030;2022-09-12T02:44:38;1.77;;;1.77;;
16282;SDS011;8249;48.708;9.030;2022-09-12T02:47:07;2.50;;;2.30;;
16282;SDS011;8249;48.708;9.030;2022-09-12T02:49:38;4.17;;;2.90;;
16282;SDS011;8249;48.708;9.030;2022-09-12T02:52:05;2.70;;;2.50;;
16282;SDS011;8249;48.708;9.030;2022-09-12T02:54:32;3.27;;;3.07;;
16282;SDS011;8249;48.708;9.030;2022-09-12T02:56:59;2.10;;;2.00;;
16282;SDS011;8249;48.708;9.030;2022-09-12T02:59:26;2.30;;;2.20;;
16282;SDS011;8249;48.708;9.030;2022-09-12T03:01:57;3.27;;;2.63;;
16282;SDS011;8249;48.708;9.030;2022-09-12T03:04:36;2.13;;;2.03;;
16282;SDS011;8249;48.708;9.030;2022-09-12T03:07:24;2.67;;;2.47;;
16282;SDS011;8249;48.708;9.030;2022-09-12T03:10:06;3.13;;;2.53;;
16282;SDS011;8249;48.708;9.030;2022-09-12T03:12:45;2.63;;;2.53;;
16282;SDS011;8249;48.708;9.030;2022-09-12T03:15:18;2.50;;;2.30;;
16282;SDS011;8249;48.708;9.030;2022-09-12T03:18:00;2.83;;;2.50;;
16282;SDS011;8249;48.708;9.030;2022-09-12T03:20:40;1.73;;;1.73;;
16282;SDS011;8249;48.708;9.030;2022-09-12T03:23:15;1.97;;;1.87;;
16282;SDS011;8249;48.708;9.030;2022-09-12T03:25:50;2.43;;;2.23;;
16282;SDS011;8249;48.708;9.030;2022-09-12T03:28:22;2.20;;;2.10;;
16282;SDS011;8249;48.708;9.030;2022-09-12T03:30:49;2.63;;;1.93;;
16282;SDS011;8249;48.708;9.030;2022-09-12T03:33:19;2.00;;;1.90;;
16282;SDS011;8249;48.708;9.030;2022-09-12T03:35:48;1.93;;;1.83;;
16282;SDS011;8249;48.708;9.030;2022-09-12T03:38:16;2.07;;;1.73;;
16282;SDS011;8249;48.708;9.030;2022-09-12T03:40:43;2.67;;;2.50;;
16282;SDS011;8249;48.708;9.030;2022-09-12T03:43:11;1.73;;;1.73;;
16282;SDS011;8249;48.708;9.030;2022-09-12T03:45:39;1.47;;;1.43;;
16282;SDS011;8249;48.708;9.030;2022-09-12T03:48:05;2.37;;;2.27;;
16282;SDS011;8249;48.708;9.030;2022-09-12T03:50:32;2.10;;;1.87;;
16282;SDS011;8249;48.708;9.030;2022-09-12T03:53:01;2.30;;;2.20;;
16282;SDS011;8249;48.708;9.030;2022-09-12T03:55:28;2.07;;;1.97;;
16282;SDS011;8249;48.708;9.030;2022-09-12T03:57:56;2.30;;;2.20;;
16282;SDS011;8249;48.708;9.030;2022-09-12T04:00:23;2.63;;;2.43;;
16282;SDS011;8249;48.708;9.030;2022-09-12T04:02:52;2.27;;;2.20;;
16282;SDS011;8249;48.708;9.030;2022-09-12T04:05:21;3.10;;;2.90;;
16282;SDS011;8249;48.708;9.030;2022-09-12T04:07:48;2.23;;;2.13;;
16282;SDS011;8249;48.708;9.030;2022-09-12T04:10:17;2.13;;;2.00;;
16282;SDS011;8249;48.708;9.030;2022-09-12T04:12:44;2.50;;;2.30;;
16282;SDS011;8249;48.708;9.030;2022-09-12T04:15:11;2.57;;;2.47;;
16282;SDS011;8249;48.708;9.030;2022-09-12T04:17:38;2.60;;;2.40;;
16282;SDS011;8249;48.708;9.030;2022-09-12T04:20:05;4.73;;;2.97;;
16282;SDS011;8249;48.708;9.030;2022-09-12T04:22:33;2.10;;;2.00;;
16282;SDS011;8249;48.708;9.030;2022-09-12T04:25:00;1.90;;;1.80;;
16282;SDS011;8249;48.708;9.030;2022-09-12T04:27:28;3.20;;;3.00;;
16282;SDS011;8249;48.708;9.030;2022-09-12T04:29:55;2.47;;;2.27;;
16282;SDS011;8249;48.708;9.030;2022-09-12T04:32:23;2.10;;;2.00;;
16282;SDS011;8249;48.708;9.030;2022-09-12T04:34:50;2.13;;;2.03;;
16282;SDS011;8249;48.708;9.030;2022-09-12T04:37:17;2.70;;;2.60;;
16282;SDS011;8249;48.708;9.030;2022-09-12T04:39:44;3.37;;;2.83;;
16282;SDS011;8249;48.708;9.030;2022-09-12T04:42:13;2.63;;;2.53;;
16282;SDS011;8249;48.708;9.030;2022-09-12T04:44:41;2.70;;;2.50;;
16282;SDS011;8249;48.708;9.030;2022-09-12T04:47:08;2.37;;;2.17;;
16282;SDS011;8249;48.708;9.030;2022-09-12T04:49:35;20.37;;;2.57;;
16282;SDS011;8249;48.708;9.030;2022-09-12T04:52:02;1.87;;;1.77;;
16282;SDS011;8249;48.708;9.030;2022-09-12T04:54:29;1.80;;;1.63;;
16282;SDS011;8249;48.708;9.030;2022-09-12T04:56:56;1.70;;;1.70;;
16282;SDS011;8249;48.708;9.030;2022-09-12T04:59:24;2.03;;;1.93;;
16282;SDS011;8249;48.708;9.030;2022-09-12T05:01:52;2.70;;;1.80;;
16282;SDS011;8249;48.708;9.030;2022-09-12T05:04:19;3.07;;;2.43;;
16282;SDS011;8249;48.708;9.030;2022-09-12T05:06:46;2.00;;;1.90;;
16282;SDS011;8249;48.708;9.030;2022-09-12T05:09:13;2.53;;;2.43;;
16282;SDS011;8249;48.708;9.030;2022-09-12T05:11:41;2.10;;;2.00;;
16282;SDS011;8249;48.708;9.030;2022-09-12T05:14:09;2.20;;;2.10;;
16282;SDS011;8249;48.708;9.030;2022-09-12T05:16:36;2.83;;;2.67;;
16282;SDS011;8249;48.708;9.030;2022-09-12T05:19:05;2.60;;;2.43;;
16282;SDS011;8249;48.708;9.030;2022-09-12T05:21:33;3.57;;;2.67;;
16282;SDS011;8249;48.708;9.030;2022-09-12T05:24:00;2.87;;;2.10;;
16282;SDS011;8249;48.708;9.030;2022-09-12T05:26:29;2.10;;;1.83;;
16282;SDS011;8249;48.708;9.030;2022-09-12T05:28:56;2.10;;;1.93;;
16282;SDS011;8249;48.708;9.030;2022-09-12T05:31:23;2.53;;;2.43;;
16282;SDS011;8249;48.708;9.030;2022-09-12T05:33:53;1.93;;;1.83;;
16282;SDS011;8249;48.708;9.030;2022-09-12T05:36:22;2.70;;;2.50;;
16282;SDS011;8249;48.708;9.030;2022-09-12T05:38:50;2.40;;;2.30;;
16282;SDS011;8249;48.708;9.030;2022-09-12T05:41:18;1.93;;;1.77;;
16282;SDS011;8249;48.708;9.030;2022-09-12T05:43:50;2.70;;;2.57;;
16282;SDS011;8249;48.708;9.030;2022-09-12T05:46:18;2.33;;;2.23;;
16282;SDS011;8249;48.708;9.030;2022-09-12T05:48:49;2.50;;;2.20;;
16282;SDS011;8249;48.708;9.030;2022-09-12T05:51:17;2.03;;;1.93;;
16282;SDS011;8249;48.708;9.030;2022-09-12T05:53:47;2.50;;;2.40;;
16282;SDS011;8249;48.708;9.030;2022-09-12T05:56:17;2.33;;;2.20;;
16282;SDS011;8249;48.708;9.030;2022-09-12T05:58:46;2.63;;;2.53;;
16282;SDS011;8249;48.708;9.030;2022-09-12T06:01:17;2.40;;;2.30;;
16282;SDS011;8249;48.708;9.030;2022-09-12T06:03:45;2.43;;;2.30;;
16282;SDS011;8249;48.708;9.030;2022-09-12T06:06:14;3.03;;;2.83;;
16282;SDS011;8249;48.708;9.030;2022-09-12T06:08:43;2.53;;;2.43;;
16282;SDS011;8249;48.708;9.030;2022-09-12T06:11:13;2.43;;;2.27;;
16282;SDS011;8249;48.708;9.030;2022-09-12T06:13:41;1.93;;;1.83;;
16282;SDS011;8249;48.708;9.030;2022-09-12T06:16:09;2.87;;;2.20;;
16282;SDS011;8249;48.708;9.030;2022-09-12T06:18:38;1.83;;;1.73;;
16282;SDS011;8249;48.708;9.030;2022-09-12T06:21:07;2.33;;;2.23;;
16282;SDS011;8249;48.708;9.030;2022-09-12T06:23:35;2.90;;;2.70;;
16282;SDS011;8249;48.708;9.030;2022-09-12T06:26:02;5.23;;;2.87;;
16282;SDS011;8249;48.708;9.030;2022-09-12T06:28:31;2.63;;;2.43;;
16282;SDS011;8249;48.708;9.030;2022-09-12T06:31:01;2.47;;;2.37;;
16282;SDS011;8249;48.708;9.030;2022-09-12T06:33:30;2.47;;;2.27;;
16282;SDS011;8249;48.708;9.030;2022-09-12T06:36:02;3.00;;;2.80;;
16282;SDS011;8249;48.708;9.030;2022-09-12T06:38:29;20.30;;;2.63;;
16282;SDS011;8249;48.708;9.030;2022-09-12T06:40:57;3.13;;;2.83;;
16282;SDS011;8249;48.708;9.030;2022-09-12T06:43:24;3.43;;;3.13;;
16282;SDS011;8249;48.708;9.030;2022-09-12T06:45:53;3.87;;;3.40;;
16282;SDS011;8249;48.708;9.030;2022-09-12T06:48:20;3.20;;;2.93;;
16282;SDS011;8249;48.708;9.030;2022-09-12T06:50:54;3.73;;;3.07;;
16282;SDS011;8249;48.708;9.030;2022-09-12T06:53:22;8.93;;;3.30;;
16282;SDS011;8249;48.708;9.030;2022-09-12T06:55:53;3.70;;;3.40;;
16282;SDS011;8249;48.708;9.030;2022-09-12T06:58:22;3.73;;;3.40;;
16282;SDS011;8249;48.708;9.030;2022-09-12T07:00:49;7.23;;;2.90;;
16282;SDS011;8249;48.708;9.030;2022-09-12T07:03:17;3.63;;;3.33;;
16282;SDS011;8249;48.708;9.030;2022-09-12T07:05:45;4.07;;;3.47;;
16282;SDS011;8249;48.708;9.030;2022-09-12T07:08:12;4.90;;;3.30;;
16282;SDS011;8249;48.708;9.030;2022-09-12T07:10:39;3.37;;;3.07;;
16282;SDS011;8249;48.708;9.030;2022-09-12T07:13:05;3.47;;;3.17;;
16282;SDS011;8249;48.708;9.030;2022-09-12T07:15:33;3.10;;;2.90;;
16282;SDS011;8249;48.708;9.030;2022-09-12T07:18:00;4.17;;;3.87;;
16282;SDS011;8249;48.708;9.030;2022-09-12T07:20:29;3.37;;;3.10;;
16282;SDS011;8249;48.708;9.030;2022-09-12T07:22:57;2.97;;;2.73;;
16282;SDS011;8249;48.708;9.030;2022-09-12T07:25:24;3.07;;;2.77;;
16282;SDS011;8249;48.708;9.030;2022-09-12T07:27:51;2.97;;;2.77;;
16282;SDS011;8249;48.708;9.030;2022-09-12T07:30:19;3.13;;;2.93;;
16282;SDS011;8249;48.708;9.030;2022-09-12T07:32:46;3.20;;;2.90;;
16282;SDS011;8249;48.708;9.030;2022-09-12T07:35:16;3.73;;;3.20;;
16282;SDS011;8249;48.708;9.030;2022-09-12T07:37:45;5.47;;;3.50;;
16282;SDS011;8249;48.708;9.030;2022-09-12T07:40:12;3.37;;;3.10;;
16282;SDS011;8249;48.708;9.030;2022-09-12T07:42:39;3.27;;;2.70;;
16282;SDS011;8249;48.708;9.030;2022-09-12T07:45:06;2.20;;;2.10;;
16282;SDS011;8249;48.708;9.030;2022-09-12T07:47:34;2.90;;;2.63;;
16282;SDS011;8249;48.708;9.030;2022-09-12T07:50:01;3.90;;;3.20;;
16282;SDS011;8249;48.708;9.030;2022-09-12T07:52:28;2.63;;;2.17;;
16282;SDS011;8249;48.708;9.030;2022-09-12T07:54:56;2.60;;;2.20;;
16282;SDS011;8249;48.708;9.030;2022-09-12T07:57:23;1.90;;;1.80;;
16282;SDS011;8249;48.708;9.030;2022-09-12T07:59:50;3.63;;;2.33;;
16282;SDS011;8249;48.708;9.030;2022-09-12T08:02:17;2.43;;;2.20;;
16282;SDS011;8249;48.708;9.030;2022-09-12T08:04:45;1.63;;;1.60;;
16282;SDS011;8249;48.708;9.030;2022-09-12T08:07:13;1.80;;;1.70;;
16282;SDS011;8249;48.708;9.030;2022-09-12T08:09:42;1.30;;;1.30;;
16282;SDS011;8249;48.708;9.030;2022-09-12T08:12:10;1.13;;;1.13;;
16282;SDS011;8249;48.708;9.030;2022-09-12T08:14:37;1.08;;;1.08;;
16282;SDS011;8249;48.708;9.030;2022-09-12T08:17:04;0.77;;;0.77;;
16282;SDS011;8249;48.708;9.030;2022-09-12T08:19:31;1.45;;;1.45;;
16282;SDS011;8249;48.708;9.030;2022-09-12T08:21:58;0.90;;;0.90;;
16282;SDS011;8249;48.708;9.030;2022-09-12T08:24:26;0.93;;;0.93;;
16282;SDS011;8249;48.708;9.030;2022-09-12T08:26:53;0.93;;;0.93;;
16282;SDS011;8249;48.708;9.030;2022-09-12T08:29:21;0.93;;;0.93;;
16282;SDS011;8249;48.708;9.030;2022-09-12T08:31:48;1.08;;;1.08;;
16282;SDS011;8249;48.708;9.030;2022-09-12T08:34:15;1.65;;;1.10;;
16282;SDS011;8249;48.708;9.030;2022-09-12T08:36:43;0.88;;;0.88;;
16282;SDS011;8249;48.708;9.030;2022-09-12T08:39:11;1.02;;;1.02;;
16282;SDS011;8249;48.708;9.030;2022-09-12T08:41:39;1.05;;;1.05;;
16282;SDS011;8249;48.708;9.030;2022-09-12T08:44:15;1.45;;;1.35;;
16282;SDS011;8249;48.708;9.030;2022-09-12T08:46:55;1.00;;;1.00;;
16282;SDS011;8249;48.708;9.030;2022-09-12T08:49:43;1.15;;;1.10;;
16282;SDS011;8249;48.708;9.030;2022-09-12T08:52:18;0.93;;;0.93;;
16282;SDS011;8249;48.708;9.030;2022-09-12T08:54:51;0.85;;;0.85;;
16282;SDS011;8249;48.708;9.030;2022-09-12T08:57:20;1.13;;;1.13;;
16282;SDS011;8249;48.708;9.030;2022-09-12T08:59:48;0.88;;;0.88;;
16282;SDS011;8249;48.708;9.030;2022-09-12T09:02:23;0.80;;;0.80;;
16282;SDS011;8249;48.708;9.030;2022-09-12T09:05:13;1.00;;;0.82;;
16282;SDS011;8249;48.708;9.030;2022-09-12T09:10:56;0.73;;;0.73;;
16282;SDS011;8249;48.708;9.030;2022-09-12T09:13:32;1.05;;;1.05;;
16282;SDS011;8249;48.708;9.030;2022-09-12T09:16:26;1.00;;;1.00;;
16282;SDS011;8249;48.708;9.030;2022-09-12T09:18:59;0.80;;;0.80;;
16282;SDS011;8249;48.708;9.030;2022-09-12T09:21:30;1.23;;;0.82;;
16282;SDS011;8249;48.708;9.030;2022-09-12T09:24:01;0.80;;;0.80;;
16282;SDS011;8249;48.708;9.030;2022-09-12T09:26:35;1.10;;;1.10;;
16282;SDS011;8249;48.708;9.030;2022-09-12T09:29:10;0.90;;;0.90;;
16282;SDS011;8249;48.708;9.030;2022-09-12T09:31:43;0.90;;;0.90;;
16282;SDS011;8249;48.708;9.030;2022-09-12T09:34:17;0.85;;;0.85;;
16282;SDS011;8249;48.708;9.030;2022-09-12T09:36:50;0.80;;;0.80;;
16282;SDS011;8249;48.708;9.030;2022-09-12T09:39:33;1.08;;;1.08;;
16282;SDS011;8249;48.708;9.030;2022-09-12T09:42:12;0.90;;;0.90;;
16282;SDS011;8249;48.708;9.030;2022-09-12T09:44:53;0.70;;;0.70;;
16282;SDS011;8249;48.708;9.030;2022-09-12T09:47:23;1.00;;;1.00;;
16282;SDS011;8249;48.708;9.030;2022-09-12T09:49:52;1.10;;;1.10;;
16282;SDS011;8249;48.708;9.030;2022-09-12T09:52:20;1.10;;;1.08;;
16282;SDS011;8249;48.708;9.030;2022-09-12T09:54:52;1.38;;;1.27;;
16282;SDS011;8249;48.708;9.030;2022-09-12T09:57:39;0.80;;;0.80;;
16282;SDS011;8249;48.708;9.030;2022-09-12T10:00:20;0.70;;;0.70;;
16282;SDS011;8249;48.708;9.030;2022-09-12T10:02:57;0.85;;;0.85;;
16282;SDS011;8249;48.708;9.030;2022-09-12T10:05:48;0.80;;;0.80;;
16282;SDS011;8249;48.708;9.030;2022-09-12T10:08:19;0.70;;;0.70;;
16282;SDS011;8249;48.708;9.030;2022-09-12T10:10:55;0.82;;;0.82;;
16282;SDS011;8249;48.708;9.030;2022-09-12T10:13:24;0.60;;;0.60;;
16282;SDS011;8249;48.708;9.030;2022-09-12T10:15:56;1.00;;;1.00;;
16282;SDS011;8249;48.708;9.030;2022-09-12T10:18:33;0.68;;;0.68;;
16282;SDS011;8249;48.708;9.030;2022-09-12T10:21:08;0.60;;;0.60;;
16282;SDS011;8249;48.708;9.030;2022-09-12T10:23:39;0.80;;;0.80;;
16282;SDS011;8249;48.708;9.030;2022-09-12T10:26:09;0.73;;;0.73;;
16282;SDS011;8249;48.708;9.030;2022-09-12T10:28:38;0.70;;;0.70;;
16282;SDS011;8249;48.708;9.030;2022-09-12T10:31:09;1.10;;;0.85;;
16282;SDS011;8249;48.708;9.030;2022-09-12T10:33:41;0.70;;;0.70;;
16282;SDS011;8249;48.708;9.030;2022-09-12T10:36:18;0.45;;;0.45;;
16282;SDS011;8249;48.708;9.030;2022-09-12T10:38:48;0.70;;;0.70;;
16282;SDS011;8249;48.708;9.030;2022-09-12T10:41:17;0.50;;;0.50;;
16282;SDS011;8249;48.708;9.030;2022-09-12T10:43:46;0.85;;;0.85;;
16282;SDS011;8249;48.708;9.030;2022-09-12T10:46:21;1.40;;;0.70;;
16282;SDS011;8249;48.708;9.030;2022-09-12T10:49:11;0.68;;;0.68;;
16282;SDS011;8249;48.708;9.030;2022-09-12T10:51:55;0.75;;;0.75;;
16282;SDS011;8249;48.708;9.030;2022-09-12T10:54:40;0.47;;;0.47;;
16282;SDS011;8249;48.708;9.030;2022-09-12T11:00:07;0.70;;;0.70;;
16282;SDS011;8249;48.708;9.030;2022-09-12T11:05:38;1.38;;;0.65;;
16282;SDS011;8249;48.708;9.030;2022-09-12T11:08:25;0.57;;;0.57;;
16282;SDS011;8249;48.708;9.030;2022-09-12T11:11:05;0.75;;;0.75;;
16282;SDS011;8249;48.708;9.030;2022-09-12T11:13:50;0.60;;;0.60;;
16282;SDS011;8249;48.708;9.030;2022-09-12T11:16:26;0.73;;;0.73;;
16282;SDS011;8249;48.708;9.030;2022-09-12T11:19:05;0.75;;;0.75;;
16282;SDS011;8249;48.708;9.030;2022-09-12T11:21:49;0.40;;;0.40;;
16282;SDS011;8249;48.708;9.030;2022-09-12T11:24:33;0.50;;;0.50;;
16282;SDS011;8249;48.708;9.030;2022-09-12T11:27:18;0.50;;;0.50;;
16282;SDS011;8249;48.708;9.030;2022-09-12T11:30:02;0.55;;;0.55;;
16282;SDS011;8249;48.708;9.030;2022-09-12T11:32:37;0.60;;;0.60;;
16282;SDS011;8249;48.708;9.030;2022-09-12T11:35:17;0.43;;;0.30;;
16282;SDS011;8249;48.708;9.030;2022-09-12T11:40:53;0.75;;;0.75;;
16282;SDS011;8249;48.708;9.030;2022-09-12T11:43:27;0.40;;;0.40;;
16282;SDS011;8249;48.708;9.030;2022-09-12T11:45:58;0.40;;;0.40;;
16282;SDS011;8249;48.708;9.030;2022-09-12T11:48:34;0.40;;;0.40;;
16282;SDS011;8249;48.708;9.030;2022-09-12T11:51:06;0.70;;;0.70;;
16282;SDS011;8249;48.708;9.030;2022-09-12T11:53:43;0.60;;;0.60;;
16282;SDS011;8249;48.708;9.030;2022-09-12T11:56:26;0.50;;;0.50;;
16282;SDS011;8249;48.708;9.030;2022-09-12T11:58:54;0.50;;;0.50;;
16282;SDS011;8249;48.708;9.030;2022-09-12T12:01:27;0.50;;;0.50;;
16282;SDS011;8249;48.708;9.030;2022-09-12T12:03:58;0.52;;;0.52;;
16282;SDS011;8249;48.708;9.030;2022-09-12T12:06:35;0.50;;;0.50;;
16282;SDS011;8249;48.708;9.030;2022-09-12T12:09:12;0.57;;;0.57;;
16282;SDS011;8249;48.708;9.030;2022-09-12T12:11:42;0.40;;;0.40;;
16282;SDS011;8249;48.708;9.030;2022-09-12T12:14:15;0.30;;;0.30;;
16282;SDS011;8249;48.708;9.030;2022-09-12T12:16:44;0.40;;;0.40;;
16282;SDS011;8249;48.708;9.030;2022-09-12T12:19:21;0.60;;;0.60;;
16282;SDS011;8249;48.708;9.030;2022-09-12T12:22:02;0.45;;;0.45;;
16282;SDS011;8249;48.708;9.030;2022-09-12T12:24:32;0.52;;;0.52;;
16282;SDS011;8249;48.708;9.030;2022-09-12T12:27:01;0.50;;;0.50;;
16282;SDS011;8249;48.708;9.030;2022-09-12T12:29:37;0.30;;;0.30;;
16282;SDS011;8249;48.708;9.030;2022-09-12T12:32:22;0.55;;;0.55;;
16282;SDS011;8249;48.708;9.030;2022-09-12T12:34:50;0.52;;;0.52;;
16282;SDS011;8249;48.708;9.030;2022-09-12T12:37:49;0.50;;;0.50;;
16282;SDS011;8249;48.708;9.030;2022-09-12T12:40:21;0.50;;;0.50;;
16282;SDS011;8249;48.708;9.030;2022-09-12T12:42:57;1.80;;;0.40;;
16282;SDS011;8249;48.708;9.030;2022-09-12T12:48:24;0.43;;;0.43;;
16282;SDS011;8249;48.708;9.030;2022-09-12T12:50:51;0.57;;;0.57;;
16282;SDS011;8249;48.708;9.030;2022-09-12T12:53:20;0.43;;;0.43;;
16282;SDS011;8249;48.708;9.030;2022-09-12T12:55:49;0.70;;;0.70;;
16282;SDS011;8249;48.708;9.030;2022-09-12T12:58:26;0.45;;;0.45;;
16282;SDS011;8249;48.708;9.030;2022-09-12T13:01:04;0.45;;;0.45;;
16282;SDS011;8249;48.708;9.030;2022-09-12T13:03:36;0.52;;;0.52;;
16282;SDS011;8249;48.708;9.030;2022-09-12T13:06:06;0.40;;;0.40;;
16282;SDS011;8249;48.708;9.030;2022-09-12T13:08:52;0.60;;;0.60;;
16282;SDS011;8249;48.708;9.030;2022-09-12T13:11:28;0.75;;;0.57;;
16282;SDS011;8249;48.708;9.030;2022-09-12T13:14:00;0.60;;;0.60;;
16282;SDS011;8249;48.708;9.030;2022-09-12T13:16:32;0.52;;;0.52;;
16282;SDS011;8249;48.708;9.030;2022-09-12T13:19:01;0.50;;;0.50;;
16282;SDS011;8249;48.708;9.030;2022-09-12T13:21:31;0.55;;;0.55;;
16282;SDS011;8249;48.708;9.030;2022-09-12T13:23:58;0.45;;;0.45;;
16282;SDS011;8249;48.708;9.030;2022-09-12T13:26:26;2.08;;;0.70;;
16282;SDS011;8249;48.708;9.030;2022-09-12T13:29:16;0.57;;;0.57;;
16282;SDS011;8249;48.708;9.030;2022-09-12T13:31:44;0.40;;;0.40;;
16282;SDS011;8249;48.708;9.030;2022-09-12T13:34:15;0.55;;;0.50;;
16282;SDS011;8249;48.708;9.030;2022-09-12T13:36:49;0.35;;;0.35;;
16282;SDS011;8249;48.708;9.030;2022-09-12T13:39:38;0.77;;;0.77;;
16282;SDS011;8249;48.708;9.030;2022-09-12T13:42:36;0.60;;;0.60;;
16282;SDS011;8249;48.708;9.030;2022-09-12T13:45:08;0.40;;;0.40;;
16282;SDS011;8249;48.708;9.030;2022-09-12T13:47:40;0.60;;;0.60;;
16282;SDS011;8249;48.708;9.030;2022-09-12T13:50:13;0.52;;;0.52;;
16282;SDS011;8249;48.708;9.030;2022-09-12T13:52:45;0.60;;;0.60;;
16282;SDS011;8249;48.708;9.030;2022-09-12T13:55:22;0.50;;;0.50;;
16282;SDS011;8249;48.708;9.030;2022-09-12T13:57:56;0.30;;;0.30;;
16282;SDS011;8249;48.708;9.030;2022-09-12T14:00:26;0.43;;;0.43;;
16282;SDS011;8249;48.708;9.030;2022-09-12T14:02:56;0.60;;;0.60;;
16282;SDS011;8249;48.708;9.030;2022-09-12T14:05:42;0.45;;;0.45;;
16282;SDS011;8249;48.708;9.030;2022-09-12T14:08:11;0.40;;;0.40;;
16282;SDS011;8249;48.708;9.030;2022-09-12T14:10:40;0.55;;;0.55;;
16282;SDS011;8249;48.708;9.030;2022-09-12T14:13:12;0.40;;;0.40;;
16282;SDS011;8249;48.708;9.030;2022-09-12T14:15:45;0.30;;;0.30;;
16282;SDS011;8249;48.708;9.030;2022-09-12T14:18:20;0.68;;;0.68;;
16282;SDS011;8249;48.708;9.030;2022-09-12T14:20:49;0.55;;;0.55;;
16282;SDS011;8249;48.708;9.030;2022-09-12T14:23:23;0.50;;;0.50;;
16282;SDS011;8249;48.708;9.030;2022-09-12T14:25:52;0.50;;;0.50;;
16282;SDS011;8249;48.708;9.030;2022-09-12T14:28:20;0.47;;;0.47;;
16282;SDS011;8249;48.708;9.030;2022-09-12T14:31:02;0.40;;;0.40;;
16282;SDS011;8249;48.708;9.030;2022-09-12T14:33:31;0.60;;;0.60;;
16282;SDS011;8249;48.708;9.030;2022-09-12T14:36:07;0.45;;;0.45;;
16282;SDS011;8249;48.708;9.030;2022-09-12T14:38:39;0.50;;;0.50;;
16282;SDS011;8249;48.708;9.030;2022-09-12T14:41:09;0.40;;;0.40;;
16282;SDS011;8249;48.708;9.030;2022-09-12T14:43:38;0.52;;;0.52;;
16282;SDS011;8249;48.708;9.030;2022-09-12T14:46:15;0.60;;;0.60;;
16282;SDS011;8249;48.708;9.030;2022-09-12T14:48:46;0.73;;;0.63;;
16282;SDS011;8249;48.708;9.030;2022-09-12T14:51:17;0.60;;;0.60;;
16282;SDS011;8249;48.708;9.030;2022-09-12T14:53:48;0.60;;;0.43;;
16282;SDS011;8249;48.708;9.030;2022-09-12T14:56:15;0.52;;;0.52;;
16282;SDS011;8249;48.708;9.030;2022-09-12T14:58:45;0.57;;;0.57;;
16282;SDS011;8249;48.708;9.030;2022-09-12T15:01:26;0.68;;;0.68;;
16282;SDS011;8249;48.708;9.030;2022-09-12T15:03:54;0.50;;;0.50;;
16282;SDS011;8249;48.708;9.030;2022-09-12T15:06:22;0.70;;;0.70;;
16282;SDS011;8249;48.708;9.030;2022-09-12T15:08:52;0.65;;;0.65;;
16282;SDS011;8249;48.708;9.030;2022-09-12T15:11:20;0.43;;;0.43;;
16282;SDS011;8249;48.708;9.030;2022-09-12T15:13:47;0.70;;;0.70;;
16282;SDS011;8249;48.708;9.030;2022-09-12T15:16:14;0.47;;;0.47;;
16282;SDS011;8249;48.708;9.030;2022-09-12T15:18:43;0.50;;;0.50;;
16282;SDS011;8249;48.708;9.030;2022-09-12T15:21:11;0.60;;;0.60;;
16282;SDS011;8249;48.708;9.030;2022-09-12T15:23:43;0.70;;;0.60;;
16282;SDS011;8249;48.708;9.030;2022-09-12T15:26:12;0.47;;;0.47;;
16282;SDS011;8249;48.708;9.030;2022-09-12T15:28:40;0.50;;;0.50;;
16282;SDS011;8249;48.708;9.030;2022-09-12T15:31:09;0.60;;;0.60;;
16282;SDS011;8249;48.708;9.030;2022-09-12T15:33:40;0.63;;;0.63;;
16282;SDS011;8249;48.708;9.030;2022-09-12T15:36:11;0.57;;;0.57;;
16282;SDS011;8249;48.708;9.030;2022-09-12T15:38:42;0.70;;;0.70;;
16282;SDS011;8249;48.708;9.030;2022-09-12T15:41:10;0.50;;;0.50;;
16282;SDS011;8249;48.708;9.030;2022-09-12T15:43:38;0.60;;;0.60;;
16282;SDS011;8249;48.708;9.030;2022-09-12T15:46:05;0.60;;;0.60;;
16282;SDS011;8249;48.708;9.030;2022-09-12T15:48:36;0.60;;;0.60;;
16282;SDS011;8249;48.708;9.030;2022-09-12T15:51:03;0.60;;;0.60;;